createdAt,value
2023-04-19T00:02:00.608Z,10.43
2023-04-19T00:04:30.405Z,10.33
2023-04-19T00:06:59.197Z,10.26
2023-04-19T00:09:27.833Z,10.21
2023-04-19T00:11:56.741Z,10.19
2023-04-19T00:14:27.608Z,10.18
2023-04-19T00:16:56.570Z,10.17
2023-04-19T00:19:28.974Z,10.08
2023-04-19T00:21:58.400Z,10.00
2023-04-19T00:24:27.807Z,9.82
2023-04-19T00:26:57.579Z,9.74
2023-04-19T00:29:28.600Z,9.65
2023-04-19T00:31:57.807Z,9.42
2023-04-19T00:34:26.724Z,9.40
2023-04-19T00:36:56.124Z,9.33
2023-04-19T00:39:27.936Z,9.24
2023-04-19T00:41:57.653Z,9.25
2023-04-19T00:44:29.081Z,9.32
2023-04-19T00:46:59.288Z,9.45
2023-04-19T00:49:29.493Z,9.50
2023-04-19T00:51:58.537Z,9.52
2023-04-19T00:54:28.079Z,9.67
2023-04-19T00:57:00.947Z,9.64
2023-04-19T00:59:37.245Z,9.79
2023-04-19T01:02:07.792Z,9.85
2023-04-19T01:04:36.753Z,9.84
2023-04-19T01:07:06.029Z,9.93
2023-04-19T01:09:35.087Z,9.83
2023-04-19T01:12:04.596Z,9.89
2023-04-19T01:14:35.009Z,9.87
2023-04-19T01:17:05.288Z,9.94
2023-04-19T01:19:34.991Z,9.86
2023-04-19T01:22:04.364Z,9.88
2023-04-19T01:24:37.656Z,9.90
2023-04-19T01:27:07.361Z,9.83
2023-04-19T01:29:36.709Z,9.89
2023-04-19T01:32:05.904Z,9.91
2023-04-19T01:34:34.589Z,10.01
2023-04-19T01:37:03.668Z,10.04
2023-04-19T01:39:32.514Z,10.00
2023-04-19T01:42:03.939Z,10.01
2023-04-19T01:44:33.045Z,9.95
2023-04-19T01:47:02.217Z,9.96
2023-04-19T01:49:31.254Z,9.95
2023-04-19T01:52:00.778Z,9.97
2023-04-19T01:54:29.787Z,9.94
2023-04-19T01:56:58.525Z,9.93
2023-04-19T01:59:43.891Z,9.82
2023-04-19T02:02:13.028Z,9.84
2023-04-19T02:04:42.088Z,9.88
2023-04-19T02:07:15.317Z,9.89
2023-04-19T02:09:44.276Z,9.76
2023-04-19T02:12:12.987Z,9.73
2023-04-19T02:14:41.879Z,9.87
2023-04-19T02:17:12.940Z,9.83
2023-04-19T02:20:21.048Z,9.86
2023-04-19T02:22:49.957Z,9.83
2023-04-19T02:25:19.604Z,9.70
2023-04-19T02:27:48.567Z,9.91
2023-04-19T02:30:17.772Z,10.02
2023-04-19T02:32:49.569Z,10.12
2023-04-19T02:35:18.246Z,10.17
2023-04-19T02:37:47.211Z,10.28
2023-04-19T02:40:16.262Z,10.35
2023-04-19T02:42:45.291Z,10.31
2023-04-19T02:45:14.324Z,10.37
2023-04-19T02:47:43.666Z,10.41
2023-04-19T02:50:15.157Z,10.46
2023-04-19T02:52:44.340Z,10.47
2023-04-19T02:55:13.121Z,10.44
2023-04-19T02:57:41.777Z,10.43
2023-04-19T03:00:11.607Z,10.39
2023-04-19T03:02:40.411Z,10.55
2023-04-19T03:05:09.801Z,10.56
2023-04-19T03:07:40.011Z,10.45
2023-04-19T03:10:11.093Z,10.61
2023-04-19T03:12:43.054Z,10.52
2023-04-19T03:15:13.056Z,10.48
2023-04-19T03:17:45.723Z,10.50
2023-04-19T03:20:24.802Z,10.39
2023-04-19T03:23:11.079Z,10.54
2023-04-19T03:29:02.901Z,10.43
2023-04-19T03:31:31.746Z,10.46
2023-04-19T03:34:00.436Z,10.48
2023-04-19T03:36:29.162Z,10.47
2023-04-19T03:38:59.700Z,10.54
2023-04-19T03:41:29.368Z,10.52
2023-04-19T03:44:04.272Z,10.54
2023-04-19T03:46:33.304Z,10.48
2023-04-19T03:49:02.653Z,10.50
2023-04-19T03:51:31.650Z,10.52
2023-04-19T03:54:02.976Z,10.51
2023-04-19T03:56:31.851Z,10.52
2023-04-19T03:59:00.739Z,10.49
2023-04-19T04:01:29.795Z,10.58
2023-04-19T04:04:00.105Z,10.48
2023-04-19T04:06:30.295Z,10.52
2023-04-19T04:09:00.224Z,10.61
2023-04-19T04:11:56.802Z,10.67
2023-04-19T04:40:23.197Z,10.86
2023-04-19T04:45:28.042Z,10.91
2023-04-19T04:47:33.845Z,10.98
2023-04-19T04:50:04.537Z,10.93
2023-04-19T04:52:59.345Z,11.05
2023-04-19T04:55:30.258Z,11.00
2023-04-19T04:58:23.513Z,11.16
2023-04-19T05:01:03.104Z,11.20
2023-04-19T05:03:35.351Z,11.17
2023-04-19T05:06:04.325Z,11.35
2023-04-19T05:08:33.734Z,11.41
2023-04-19T05:11:04.814Z,11.58
2023-04-19T05:13:56.968Z,11.52
2023-04-19T05:16:28.839Z,11.66
2023-04-19T05:19:07.938Z,11.67
2023-04-19T05:21:36.660Z,11.74
2023-04-19T05:24:10.206Z,11.73
2023-04-19T05:26:42.658Z,11.81
2023-04-19T05:29:12.016Z,11.93
2023-04-19T05:31:44.092Z,12.06
2023-04-19T05:34:13.055Z,12.17
2023-04-19T05:36:44.923Z,12.22
2023-04-19T05:39:24.905Z,12.32
2023-04-19T05:41:55.695Z,12.39
2023-04-19T05:44:52.770Z,12.63
2023-04-19T05:47:27.598Z,12.66
2023-04-19T05:50:15.190Z,12.79
2023-04-19T05:52:46.803Z,12.90
2023-04-19T05:55:15.772Z,12.95
2023-04-19T05:57:46.189Z,13.08
2023-04-19T06:00:16.220Z,13.21
2023-04-19T06:02:45.129Z,13.31
2023-04-19T06:05:23.231Z,13.46
2023-04-19T06:08:02.802Z,13.56
2023-04-19T06:10:48.925Z,13.63
2023-04-19T06:13:48.451Z,13.77
2023-04-19T06:16:23.471Z,13.86
2023-04-19T06:18:54.897Z,13.95
2023-04-19T06:21:24.264Z,14.06
2023-04-19T06:23:52.957Z,14.07
2023-04-19T06:26:24.803Z,14.22
2023-04-19T06:28:55.552Z,14.29
2023-04-19T06:31:26.962Z,14.31
2023-04-19T06:33:56.673Z,14.31
2023-04-19T06:36:33.972Z,14.45
2023-04-19T06:39:02.996Z,14.64
2023-04-19T06:41:31.609Z,14.72
2023-04-19T06:44:01.882Z,14.92
2023-04-19T06:46:30.862Z,15.03
2023-04-19T06:49:00.052Z,15.23
2023-04-19T06:51:29.380Z,15.18
2023-04-19T06:54:04.201Z,15.28
2023-04-19T06:56:48.726Z,15.45
2023-04-19T06:59:23.357Z,15.49
2023-04-19T07:01:58.741Z,15.60
2023-04-19T07:04:28.187Z,15.69
2023-04-19T07:07:01.055Z,15.86
2023-04-19T07:09:32.632Z,15.92
2023-04-19T07:12:01.846Z,16.08
2023-04-19T07:14:34.554Z,16.26
2023-04-19T07:17:06.692Z,15.98
2023-04-19T07:19:36.554Z,16.10
2023-04-19T07:22:08.635Z,16.23
2023-04-19T07:25:14.372Z,16.20
2023-04-19T07:27:45.624Z,16.19
2023-04-19T07:30:17.683Z,16.09
2023-04-19T07:32:51.821Z,16.27
2023-04-19T07:35:20.886Z,16.28
2023-04-19T07:37:49.802Z,16.48
2023-04-19T07:40:21.994Z,16.49
2023-04-19T07:42:51.389Z,16.56
2023-04-19T07:45:22.503Z,16.56
2023-04-19T07:47:51.276Z,16.72
2023-04-19T07:50:21.826Z,16.78
2023-04-19T07:52:51.165Z,16.81
2023-04-19T07:55:20.166Z,16.88
2023-04-19T07:57:49.310Z,16.96
2023-04-19T08:00:18.795Z,17.00
2023-04-19T08:02:50.577Z,17.01
2023-04-19T08:05:20.286Z,17.08
2023-04-19T08:07:49.652Z,17.10
2023-04-19T08:10:21.710Z,17.08
2023-04-19T08:18:02.052Z,17.36
2023-04-19T08:20:31.043Z,17.24
2023-04-19T08:23:14.097Z,17.32
2023-04-19T08:25:51.039Z,17.34
2023-04-19T08:28:27.443Z,17.41
2023-04-19T08:31:10.987Z,17.36
2023-04-19T08:33:42.781Z,17.33
2023-04-19T08:36:17.075Z,17.21
2023-04-19T08:39:01.891Z,17.27
2023-04-19T08:41:33.764Z,17.37
2023-04-19T08:44:04.125Z,17.37
2023-04-19T08:46:33.679Z,17.39
2023-04-19T08:49:13.150Z,17.45
2023-04-19T08:51:55.664Z,17.49
2023-04-19T08:54:50.510Z,17.46
2023-04-19T08:57:18.834Z,17.42
2023-04-19T08:59:59.557Z,17.37
2023-04-19T09:02:29.535Z,17.24
2023-04-19T09:05:08.662Z,17.23
2023-04-19T09:07:57.901Z,17.38
2023-04-19T09:10:44.307Z,17.38
2023-04-19T09:13:46.650Z,17.15
2023-04-19T09:16:55.741Z,17.02
2023-04-19T09:20:06.642Z,16.78
2023-04-19T09:23:08.034Z,16.64
2023-04-19T09:26:15.099Z,16.66
2023-04-19T09:29:29.217Z,16.51
2023-04-19T09:32:19.183Z,16.37
2023-04-19T09:35:04.084Z,16.25
2023-04-19T09:38:01.408Z,16.17
2023-04-19T09:40:31.026Z,16.13
2023-04-19T09:46:06.522Z,16.00
2023-04-19T09:48:45.420Z,15.97
2023-04-19T09:51:16.782Z,16.06
2023-04-19T09:53:57.798Z,16.08
2023-04-19T09:56:45.586Z,16.13
2023-04-19T09:59:20.818Z,16.19
2023-04-19T10:01:57.441Z,16.13
2023-04-19T10:04:38.455Z,16.32
2023-04-19T10:09:58.208Z,16.45
2023-04-19T10:15:11.333Z,16.80
2023-04-19T10:17:40.257Z,16.84
2023-04-19T10:20:14.057Z,16.88
2023-04-19T10:22:46.106Z,16.90
2023-04-19T10:25:16.380Z,17.04
2023-04-19T10:27:56.688Z,17.03
2023-04-19T10:30:29.282Z,17.06
2023-04-19T10:33:13.718Z,16.81
2023-04-19T10:36:14.671Z,16.90
2023-04-19T10:43:21.460Z,16.69
2023-04-19T10:45:51.786Z,16.65
2023-04-19T10:53:32.887Z,16.50
2023-04-19T10:56:03.908Z,16.65
2023-04-19T10:59:15.216Z,16.70
2023-04-19T11:01:47.777Z,16.64
2023-04-19T11:04:18.802Z,16.72
2023-04-19T11:07:04.857Z,16.90
2023-04-19T11:10:04.023Z,16.97
2023-04-19T11:12:33.539Z,17.20
2023-04-19T11:15:04.254Z,17.34
2023-04-19T11:17:33.321Z,17.45
2023-04-19T11:20:08.444Z,17.66
2023-04-19T11:22:42.776Z,17.86
2023-04-19T11:25:13.405Z,17.96
2023-04-19T11:27:43.105Z,17.99
2023-04-19T11:30:30.634Z,18.17
2023-04-19T11:32:59.987Z,18.09
2023-04-19T11:35:30.698Z,18.17
2023-04-19T11:38:01.984Z,18.24
2023-04-19T11:40:31.172Z,18.54
2023-04-19T11:43:00.887Z,18.93
2023-04-19T11:45:39.613Z,19.31
2023-04-19T11:48:15.065Z,19.44
2023-04-19T11:50:44.923Z,19.58
2023-04-19T11:53:40.318Z,19.46
2023-04-19T11:56:17.716Z,19.12
2023-04-19T11:58:59.363Z,19.10
2023-04-19T12:01:52.321Z,18.94
2023-04-19T12:04:29.168Z,18.90
2023-04-19T12:07:11.740Z,18.87
2023-04-19T12:09:41.256Z,18.95
2023-04-19T12:12:26.542Z,18.86
2023-04-19T12:14:58.785Z,18.94
2023-04-19T12:17:40.050Z,18.77
2023-04-19T12:20:32.081Z,18.89
2023-04-19T12:23:11.334Z,19.12
2023-04-19T12:25:40.389Z,19.39
2023-04-19T12:28:19.577Z,19.51
2023-04-19T12:30:50.143Z,19.73
2023-04-19T12:33:21.674Z,19.84
2023-04-19T12:35:52.346Z,20.03
2023-04-19T12:38:22.040Z,20.16
2023-04-19T12:40:53.336Z,20.08
2023-04-19T12:43:22.316Z,20.23
2023-04-19T12:45:51.297Z,20.07
2023-04-19T12:48:26.380Z,20.00
2023-04-19T12:50:55.820Z,20.09
2023-04-19T12:53:25.528Z,20.37
2023-04-19T12:55:54.266Z,20.45
2023-04-19T12:58:23.256Z,20.43
2023-04-19T13:00:52.589Z,20.14
2023-04-19T13:03:21.744Z,19.86
2023-04-19T13:05:52.566Z,19.45
2023-04-19T13:08:41.077Z,19.31
2023-04-19T13:11:16.775Z,19.09
2023-04-19T13:13:46.105Z,19.03
2023-04-19T13:16:14.812Z,18.90
2023-04-19T13:18:43.532Z,18.69
2023-04-19T13:21:33.426Z,18.45
2023-04-19T13:24:04.474Z,18.37
2023-04-19T13:26:34.449Z,18.21
2023-04-19T13:29:03.815Z,18.09
2023-04-19T13:31:36.383Z,17.90
2023-04-19T13:34:05.549Z,17.87
2023-04-19T13:36:36.462Z,17.83
2023-04-19T13:39:07.628Z,17.68
2023-04-19T13:41:37.154Z,17.48
2023-04-19T13:44:05.908Z,17.26
2023-04-19T13:46:34.867Z,17.15
2023-04-19T13:49:23.059Z,17.00
2023-04-19T13:51:55.908Z,16.88
2023-04-19T13:54:29.963Z,16.84
2023-04-19T13:57:03.015Z,16.69
2023-04-19T13:59:34.172Z,16.70
2023-04-19T14:02:05.033Z,16.77
2023-04-19T14:04:34.008Z,16.71
2023-04-19T14:07:04.450Z,16.73
2023-04-19T14:09:33.957Z,16.75
2023-04-19T14:12:04.523Z,16.78
2023-04-19T14:14:33.440Z,16.77
2023-04-19T14:17:02.383Z,16.73
2023-04-19T14:19:31.140Z,16.71
2023-04-19T14:22:01.411Z,16.71
2023-04-19T14:24:32.029Z,16.79
2023-04-19T14:27:10.287Z,16.91
2023-04-19T14:29:40.333Z,17.21
2023-04-19T14:32:24.064Z,17.74
2023-04-19T14:34:55.408Z,18.40
2023-04-19T14:37:25.273Z,18.89
2023-04-19T14:39:55.456Z,18.95
2023-04-19T14:42:24.379Z,19.20
2023-04-19T14:44:55.862Z,18.98
2023-04-19T14:47:24.601Z,18.61
2023-04-19T14:49:54.699Z,18.33
2023-04-19T14:52:34.729Z,18.09
2023-04-19T14:55:05.546Z,17.96
2023-04-19T14:57:34.455Z,17.93
2023-04-19T15:00:04.058Z,17.95
2023-04-19T15:03:12.584Z,17.75
2023-04-19T15:05:42.014Z,17.66
2023-04-19T15:08:23.400Z,17.81
2023-04-19T15:11:00.591Z,17.69
2023-04-19T15:13:29.872Z,17.49
2023-04-19T15:16:03.226Z,17.34
2023-04-19T15:18:32.186Z,17.27
2023-04-19T15:21:01.031Z,17.23
2023-04-19T15:23:29.980Z,17.17
2023-04-19T15:26:00.285Z,17.19
2023-04-19T15:28:28.789Z,17.13
2023-04-19T15:31:01.942Z,17.10
2023-04-19T15:33:30.945Z,17.03
2023-04-19T15:35:59.993Z,16.99
2023-04-19T15:38:31.070Z,17.00
2023-04-19T15:41:02.196Z,16.90
2023-04-19T15:43:32.673Z,16.96
2023-04-19T15:46:01.593Z,16.90
2023-04-19T15:48:32.899Z,16.83
2023-04-19T15:51:01.989Z,16.81
2023-04-19T15:53:31.018Z,16.76
2023-04-19T15:56:01.564Z,16.72
2023-04-19T15:58:33.304Z,16.66
2023-04-19T16:01:01.801Z,16.66
2023-04-19T16:03:42.252Z,16.67
2023-04-19T16:06:13.865Z,16.84
2023-04-19T16:08:42.757Z,17.18
2023-04-19T16:11:14.032Z,17.40
2023-04-19T16:13:42.899Z,17.37
2023-04-19T16:16:11.680Z,17.18
2023-04-19T16:18:40.606Z,17.01
2023-04-19T16:21:10.692Z,16.87
2023-04-19T16:23:39.203Z,16.86
2023-04-19T16:26:08.322Z,16.71
2023-04-19T16:28:38.819Z,16.55
2023-04-19T16:31:08.006Z,16.43
2023-04-19T16:33:36.726Z,16.30
2023-04-19T16:36:06.204Z,16.25
2023-04-19T16:38:36.721Z,16.16
2023-04-19T16:41:06.161Z,16.04
2023-04-19T16:43:38.294Z,15.93
2023-04-19T16:46:08.357Z,15.82
2023-04-19T16:48:37.331Z,15.74
2023-04-19T16:51:06.041Z,15.67
2023-04-19T16:53:34.980Z,15.59
2023-04-19T16:56:03.842Z,15.53
2023-04-19T16:58:34.218Z,15.47
2023-04-19T17:01:10.306Z,15.37
2023-04-19T17:03:39.187Z,15.30
2023-04-19T17:06:08.367Z,15.21
2023-04-19T17:08:38.527Z,15.15
2023-04-19T17:11:08.870Z,15.09
2023-04-19T17:13:37.885Z,15.08
2023-04-19T17:16:09.720Z,14.99
2023-04-19T17:18:39.439Z,14.92
2023-04-19T17:21:08.540Z,14.83
2023-04-19T17:23:37.094Z,14.80
2023-04-19T17:26:08.238Z,14.73
2023-04-19T17:28:36.859Z,14.64
2023-04-19T17:31:05.662Z,14.56
2023-04-19T17:33:38.753Z,14.49
2023-04-19T17:36:08.081Z,14.46
2023-04-19T17:38:37.294Z,14.39
2023-04-19T17:41:08.674Z,14.29
2023-04-19T17:43:37.182Z,14.26
2023-04-19T17:46:06.420Z,14.20
2023-04-19T17:49:23.615Z,14.04
2023-04-19T17:51:56.237Z,14.01
2023-04-19T17:54:28.634Z,13.85
2023-04-19T17:56:59.506Z,13.86
2023-04-19T17:59:28.286Z,13.84
2023-04-19T18:02:27.177Z,13.87
2023-04-19T18:05:13.583Z,13.92
2023-04-19T18:07:44.245Z,14.03
2023-04-19T18:10:25.441Z,14.07
2023-04-19T18:12:54.273Z,14.10
2023-04-19T18:15:46.261Z,14.17
2023-04-19T18:18:37.470Z,14.25
2023-04-19T18:21:25.868Z,14.26
2023-04-19T18:23:56.816Z,14.22
2023-04-19T18:26:25.978Z,14.14
2023-04-19T18:28:56.642Z,14.19
2023-04-19T18:31:25.893Z,14.12
2023-04-19T18:34:36.056Z,13.97
2023-04-19T18:37:29.536Z,13.76
2023-04-19T18:40:01.283Z,13.66
2023-04-19T18:42:32.210Z,13.57
2023-04-19T18:45:01.191Z,13.45
2023-04-19T18:47:33.372Z,13.27
2023-04-19T18:50:05.185Z,13.20
2023-04-19T18:52:36.556Z,13.02
2023-04-19T18:55:08.347Z,12.92
2023-04-19T18:57:43.032Z,12.92
2023-04-19T19:00:13.243Z,12.91
2023-04-19T19:03:58.133Z,12.80
2023-04-19T19:21:07.390Z,12.64
2023-04-19T20:15:27.777Z,12.18
2023-04-19T20:18:11.415Z,12.00
2023-04-19T20:21:23.217Z,11.97
2023-04-19T20:24:34.979Z,11.93
2023-04-19T20:28:27.301Z,11.84
2023-04-19T20:44:13.713Z,11.53
2023-04-19T21:03:13.671Z,10.95
2023-04-19T21:05:47.238Z,11.02
2023-04-19T21:08:19.250Z,11.04
2023-04-19T21:10:48.746Z,11.08
2023-04-19T21:13:18.227Z,11.14
2023-04-19T21:15:47.507Z,11.20
2023-04-19T21:18:17.861Z,11.22
2023-04-19T21:20:46.664Z,11.15
2023-04-19T21:23:16.996Z,11.13
2023-04-19T21:25:45.897Z,11.07
2023-04-19T21:28:15.394Z,11.00
2023-04-19T21:30:44.024Z,10.90
2023-04-19T21:33:13.172Z,10.88
2023-04-19T21:35:43.048Z,10.89
2023-04-19T21:38:11.971Z,10.74
2023-04-19T21:40:47.164Z,10.68
2023-04-19T21:43:23.998Z,10.49
2023-04-19T21:46:20.968Z,10.31
2023-04-19T21:49:17.397Z,10.09
2023-04-19T21:51:52.670Z,10.01
2023-04-19T21:54:32.856Z,9.88
2023-04-19T21:57:02.868Z,9.83
2023-04-19T21:59:31.668Z,9.69
2023-04-19T22:02:00.479Z,9.73
2023-04-19T22:04:56.325Z,9.78
2023-04-19T22:07:31.162Z,9.78
2023-04-19T22:13:51.907Z,9.88
2023-04-19T22:16:40.576Z,9.96
2023-04-19T22:19:24.502Z,10.12
2023-04-19T22:22:02.841Z,10.20
2023-04-19T22:24:41.287Z,10.18
2023-04-19T22:27:44.762Z,10.30
2023-04-19T22:36:45.029Z,10.96
2023-04-19T22:39:16.114Z,11.04
2023-04-19T22:42:04.395Z,11.22
2023-04-19T22:44:33.531Z,11.26
2023-04-19T22:47:05.314Z,11.34
2023-04-19T22:49:38.615Z,11.39
2023-04-19T22:52:14.611Z,11.36
2023-04-19T22:54:44.646Z,11.47
2023-04-19T22:57:15.144Z,11.49
2023-04-19T22:59:43.678Z,11.49
2023-04-19T23:02:12.578Z,11.48
2023-04-19T23:04:44.837Z,11.43
2023-04-19T23:07:13.461Z,11.39
2023-04-19T23:09:42.214Z,11.31
2023-04-19T23:12:11.166Z,11.18
2023-04-19T23:14:42.012Z,11.09
2023-04-19T23:17:11.162Z,10.97
2023-04-19T23:19:39.588Z,10.79
2023-04-19T23:22:08.944Z,10.65
2023-04-19T23:24:39.371Z,10.54
2023-04-19T23:27:08.756Z,10.43
2023-04-19T23:29:37.482Z,10.32
2023-04-19T23:32:08.597Z,10.28
2023-04-19T23:34:37.277Z,10.13
2023-04-19T23:37:06.733Z,10.07
2023-04-19T23:39:35.305Z,9.98
2023-04-19T23:42:04.708Z,9.87
2023-04-19T23:44:33.231Z,9.80
2023-04-19T23:47:02.664Z,9.69
2023-04-19T23:49:33.344Z,9.60
2023-04-19T23:52:04.487Z,9.44
2023-04-19T23:54:33.554Z,9.37
2023-04-19T23:57:01.984Z,9.24
2023-04-19T23:59:32.905Z,9.08
